Time;durP1;ratioP1;P1;durP2;ratioP2;P2;SDS_P1;SDS_P2;PMS_P1;PMS_P2;Temp;Humidity;BMP_temperature;BMP_pressure;BME280_temperature;BME280_humidity;BME280_pressure;Samples;Min_cycle;Max_cycle;Signal;HPM_P1;HPM_P2
2021/10/23 00:00:11;;;;;;;1.00;0.90;;;2.80;1.40;;;3.54;100.00;96145.25;646509;216;31533;-71
2021/10/23 00:02:52;;;;;;;0.50;0.45;;;2.70;1.40;;;3.59;100.00;96143.30;645807;212;31535;-72
2021/10/23 00:06:26;;;;;;;0.90;0.80;;;2.60;1.40;;;3.40;100.00;96146.64;645372;216;32087;-73
2021/10/23 00:09:07;;;;;;;0.70;0.60;;;2.60;1.40;;;3.46;100.00;96147.72;646836;216;32177;-73
2021/10/23 00:11:49;;;;;;;0.50;0.50;;;2.60;1.40;;;3.39;100.00;96147.53;646556;216;32291;-73
2021/10/23 00:14:31;;;;;;;0.40;0.40;;;2.40;1.40;;;3.43;100.00;96149.16;646293;212;31483;-73
2021/10/23 00:17:12;;;;;;;0.40;0.30;;;2.50;1.40;;;3.45;100.00;96147.48;645990;216;31487;-72
2021/10/23 00:19:57;;;;;;;0.40;0.30;;;2.60;1.40;;;3.35;100.00;96152.09;646312;212;31504;-71
2021/10/23 00:22:36;;;;;;;0.60;0.37;;;2.50;1.40;;;3.33;100.00;96150.95;645532;212;31632;-74
2021/10/23 00:25:19;;;;;;;0.62;0.62;;;2.50;1.40;;;3.25;100.00;96156.65;646360;212;31911;-73
2021/10/23 00:27:59;;;;;;;2.70;0.60;;;2.30;1.40;;;3.14;100.00;96157.34;646290;212;31614;-74
2021/10/23 00:30:41;;;;;;;3.60;0.50;;;2.20;1.40;;;3.20;100.00;96157.36;618094;222;31857;-73
2021/10/23 00:35:50;;;;;;;0.43;0.40;;;2.40;1.40;;;3.22;100.00;96156.16;645009;212;31547;-74
2021/10/23 00:38:35;;;;;;;0.80;0.70;;;2.40;1.40;;;3.09;100.00;96161.80;645251;216;31521;-72
2021/10/23 00:41:17;;;;;;;1.10;0.30;;;2.10;1.40;;;2.99;100.00;96156.41;642894;216;32735;-73
2021/10/23 00:43:58;;;;;;;0.40;0.30;;;2.30;1.40;;;3.01;100.00;96156.88;645768;216;31751;-73
2021/10/23 00:46:40;;;;;;;0.40;0.30;;;2.20;1.40;;;2.93;100.00;96158.84;646150;216;31564;-73
2021/10/23 00:49:22;;;;;;;3.00;0.77;;;2.00;1.40;;;2.96;100.00;96163.99;646093;216;32931;-73
2021/10/23 00:52:03;;;;;;;0.40;0.30;;;2.00;1.40;;;2.90;100.00;96161.89;647352;216;31521;-73
2021/10/23 00:54:45;;;;;;;2.90;0.60;;;2.00;1.40;;;2.88;100.00;96164.09;644904;212;32020;-71
2021/10/23 00:57:27;;;;;;;2.10;0.50;;;2.00;1.40;;;2.92;100.00;96168.83;646205;216;32170;-73
2021/10/23 01:00:09;;;;;;;0.57;0.47;;;2.10;1.40;;;3.00;100.00;96173.63;646085;216;42259;-72
2021/10/23 01:02:51;;;;;;;0.40;0.30;;;2.30;1.40;;;2.98;100.00;96169.63;645858;216;31460;-72
2021/10/23 01:05:32;;;;;;;0.57;0.47;;;2.10;1.40;;;2.93;100.00;96169.08;645664;212;31689;-71
2021/10/23 01:08:14;;;;;;;1.00;0.70;;;1.90;1.40;;;2.91;100.00;96168.55;646175;216;31679;-73
2021/10/23 01:10:56;;;;;;;0.50;0.50;;;2.00;1.40;;;2.82;100.00;96169.61;646976;212;31617;-73
2021/10/23 01:13:41;;;;;;;0.70;0.50;;;2.00;1.40;;;2.98;100.00;96171.98;645951;216;31537;-73
2021/10/23 01:18:59;;;;;;;0.40;0.30;;;2.00;1.40;;;2.80;100.00;96167.91;646712;216;31606;-73
2021/10/23 01:21:41;;;;;;;0.60;0.60;;;2.00;1.40;;;2.72;100.00;96169.81;646742;216;31650;-72
2021/10/23 01:24:26;;;;;;;0.60;0.60;;;1.90;1.40;;;2.69;100.00;96168.83;645069;216;31538;-73
2021/10/23 01:27:08;;;;;;;0.68;0.68;;;2.00;1.40;;;2.66;100.00;96170.53;645699;212;31525;-73
2021/10/23 01:29:49;;;;;;;0.60;0.50;;;2.00;1.40;;;2.66;100.00;96173.91;646811;216;31543;-73
2021/10/23 01:32:31;;;;;;;0.40;0.30;;;2.00;1.40;;;2.78;100.00;96166.70;645239;216;31635;-72
2021/10/23 01:35:51;;;;;;;1.70;0.70;;;2.10;1.40;;;2.71;100.00;96171.77;646274;216;31618;-73
2021/10/23 01:38:35;;;;;;;0.52;0.50;;;2.10;1.40;;;2.60;100.00;96172.59;646839;212;31606;-72
2021/10/23 01:41:17;;;;;;;0.40;0.40;;;2.00;1.40;;;2.62;100.00;96172.82;644008;212;31673;-73
2021/10/23 01:43:59;;;;;;;1.30;0.70;;;1.90;1.40;;;2.73;100.00;96170.62;647925;216;31512;-72
2021/10/23 01:46:40;;;;;;;3.85;1.12;;;2.10;1.40;;;2.73;100.00;96172.13;645473;216;31506;-72
2021/10/23 01:49:22;;;;;;;0.73;0.35;;;2.10;1.40;;;2.78;100.00;96167.36;618748;226;31890;-73
2021/10/23 01:52:04;;;;;;;0.80;0.80;;;2.20;1.40;;;2.80;100.00;96165.92;646245;216;31599;-73
2021/10/23 01:54:46;;;;;;;0.65;0.65;;;2.20;1.40;;;2.78;100.00;96166.70;645070;216;31567;-73
2021/10/23 01:57:28;;;;;;;0.40;0.30;;;2.20;1.40;;;2.85;100.00;96168.70;619447;222;31917;-73
2021/10/23 02:00:10;;;;;;;0.85;0.85;;;2.20;1.40;;;2.88;100.00;96168.59;646557;216;31516;-73
2021/10/23 02:02:52;;;;;;;0.60;0.40;;;2.20;1.40;;;2.86;100.00;96161.11;646086;216;31521;-70
2021/10/23 02:05:34;;;;;;;0.50;0.40;;;2.20;1.40;;;2.92;100.00;96164.02;646524;216;31490;-72
2021/10/23 02:08:15;;;;;;;1.10;0.50;;;2.30;1.40;;;2.97;100.00;96166.26;646888;216;31489;-72
2021/10/23 02:10:57;;;;;;;2.50;0.45;;;2.30;1.40;;;2.98;100.00;96171.98;645020;216;31726;-73
2021/10/23 02:13:39;;;;;;;1.10;1.10;;;2.30;1.40;;;2.96;100.00;96173.62;645785;212;31539;-73
2021/10/23 02:16:24;;;;;;;0.80;0.80;;;2.20;1.40;;;2.93;100.00;96174.37;645878;216;31598;-73
2021/10/23 02:19:05;;;;;;;0.40;0.35;;;2.20;1.40;;;2.96;100.00;96174.58;646249;212;31538;-71
2021/10/23 02:21:47;;;;;;;0.70;0.57;;;2.30;1.40;;;3.06;100.00;96172.71;645375;216;31510;-72
2021/10/23 02:24:28;;;;;;;0.88;0.88;;;2.40;1.40;;;3.18;100.00;96176.67;646319;216;31998;-73
2021/10/23 02:27:10;;;;;;;0.70;0.50;;;2.50;1.40;;;3.25;100.00;96172.93;640942;214;43360;-72
2021/10/23 02:29:55;;;;;;;0.85;0.70;;;2.60;1.40;;;3.33;100.00;96174.97;645889;216;31532;-71
2021/10/23 02:32:36;;;;;;;0.50;0.50;;;2.70;1.40;;;3.38;100.00;96178.51;632421;221;31699;-73
2021/10/23 02:35:51;;;;;;;0.90;0.30;;;2.70;1.40;;;3.39;100.00;96178.09;645673;216;31601;-73
2021/10/23 02:38:33;;;;;;;0.60;0.40;;;2.80;1.40;;;3.47;100.00;96184.78;645570;216;31540;-73
2021/10/23 02:41:17;;;;;;;2.60;1.20;;;2.80;1.40;;;3.56;100.00;96186.98;643319;212;31754;-72
2021/10/23 02:43:58;;;;;;;0.40;0.40;;;2.90;1.40;;;3.71;100.00;96185.80;645260;212;31704;-73
2021/10/23 02:46:38;;;;;;;0.52;0.52;;;2.90;1.40;;;3.83;100.00;96187.36;646242;212;32072;-71
2021/10/23 02:49:20;;;;;;;0.40;0.20;;;3.10;1.40;;;3.91;100.00;96189.71;646139;216;31493;-71
2021/10/23 02:52:01;;;;;;;0.57;0.40;;;3.20;1.40;;;4.01;100.00;96191.21;645969;212;31700;-72
2021/10/23 02:54:43;;;;;;;0.60;0.50;;;3.40;1.40;;;4.19;100.00;96191.63;646234;216;31468;-73
2021/10/23 02:57:25;;;;;;;0.95;0.70;;;3.50;1.40;;;4.34;100.00;96194.98;646731;216;31564;-71
2021/10/23 03:00:07;;;;;;;0.80;0.70;;;3.70;1.40;;;4.46;100.00;96193.48;646194;216;31533;-72
2021/10/23 03:02:49;;;;;;;0.90;0.90;;;3.70;1.40;;;4.60;100.00;96192.42;646620;212;31542;-72
2021/10/23 03:05:31;;;;;;;0.40;0.30;;;3.80;1.40;;;4.63;100.00;96190.52;646947;216;31836;-70
2021/10/23 03:08:12;;;;;;;0.40;0.30;;;3.80;1.40;;;4.66;100.00;96189.73;645872;216;32148;-73
2021/10/23 03:10:57;;;;;;;0.60;0.60;;;3.90;1.40;;;4.72;100.00;96190.77;647084;212;31508;-70
2021/10/23 03:13:39;;;;;;;1.20;0.60;;;3.90;1.40;;;4.83;100.00;96192.23;644916;212;31504;-72
2021/10/23 03:16:20;;;;;;;0.70;0.60;;;3.90;1.40;;;4.86;100.00;96198.50;619352;222;31867;-71
2021/10/23 03:19:02;;;;;;;0.80;0.37;;;3.90;1.40;;;4.80;100.00;96202.37;647049;212;31601;-71
2021/10/23 03:21:44;;;;;;;0.50;0.30;;;3.90;1.40;;;4.73;100.00;96205.88;646262;216;31626;-72
2021/10/23 03:24:25;;;;;;;1.60;0.60;;;3.90;1.40;;;4.83;100.00;96208.19;646771;216;31617;-71
2021/10/23 03:27:10;;;;;;;0.40;0.30;;;3.90;1.40;;;4.92;100.00;96212.27;646329;216;31513;-72
2021/10/23 03:29:53;;;;;;;0.50;0.50;;;4.10;1.40;;;4.83;100.00;96215.61;645444;215;31499;-73
2021/10/23 03:32:35;;;;;;;0.60;0.60;;;4.10;1.40;;;4.96;100.00;96215.44;646974;212;31463;-73
2021/10/23 03:35:51;;;;;;;0.90;0.90;;;4.20;1.40;;;4.95;100.00;96212.96;647083;216;31564;-73
2021/10/23 03:38:33;;;;;;;0.52;0.52;;;4.20;1.40;;;5.07;100.00;96215.66;618363;222;31891;-74
2021/10/23 03:41:14;;;;;;;0.50;0.40;;;4.40;1.40;;;5.09;100.00;96216.64;646023;216;31493;-73
2021/10/23 03:43:56;;;;;;;0.60;0.50;;;4.40;1.40;;;5.12;100.00;96219.05;646759;216;31631;-73
2021/10/23 03:46:38;;;;;;;0.80;0.80;;;4.50;1.40;;;5.14;100.00;96218.58;645981;216;31498;-74
2021/10/23 03:49:20;;;;;;;0.65;0.65;;;4.50;1.40;;;5.14;100.00;96215.78;646877;216;31512;-71
2021/10/23 03:52:01;;;;;;;0.88;0.40;;;4.50;1.40;;;5.21;100.00;96218.80;646487;212;31550;-73
2021/10/23 03:54:43;;;;;;;0.80;0.40;;;4.50;1.40;;;5.19;100.00;96224.77;646058;212;31657;-73
2021/10/23 03:57:24;;;;;;;0.50;0.50;;;4.50;1.40;;;5.22;100.00;96221.60;646215;216;32109;-72
2021/10/23 04:00:08;;;;;;;0.50;0.43;;;4.50;1.40;;;5.20;100.00;96223.44;646543;216;31571;-73
2021/10/23 04:02:49;;;;;;;1.50;1.40;;;4.50;1.40;;;5.20;100.00;96226.13;645305;216;31499;-73
2021/10/23 04:05:31;;;;;;;1.85;0.65;;;4.50;1.40;;;5.25;100.00;96229.70;646953;216;31550;-73
2021/10/23 04:08:13;;;;;;;0.60;0.60;;;4.50;1.40;;;5.24;100.00;96229.48;645760;212;31553;-74
2021/10/23 04:10:54;;;;;;;0.52;0.45;;;4.50;1.40;;;5.27;100.00;96230.64;645720;216;31675;-74
2021/10/23 04:13:36;;;;;;;0.40;0.30;;;4.60;1.40;;;5.29;100.00;96237.87;645840;212;31483;-74
2021/10/23 04:16:18;;;;;;;0.70;0.50;;;4.50;1.40;;;5.30;100.00;96238.09;645648;213;31626;-73
2021/10/23 04:18:59;;;;;;;0.57;0.57;;;4.50;1.40;;;5.30;100.00;96242.50;646923;212;31636;-71
2021/10/23 04:21:42;;;;;;;1.30;0.60;;;4.60;1.40;;;5.36;100.00;96244.51;646875;216;31613;-73
2021/10/23 04:24:29;;;;;;;0.70;0.50;;;4.60;1.40;;;5.48;100.00;96241.66;648006;212;31575;-81
2021/10/23 04:27:17;;;;;;;0.40;0.40;;;4.50;1.40;;;5.39;100.00;96243.17;645378;216;31585;-73
2021/10/23 04:29:58;;;;;;;0.40;0.40;;;4.50;1.40;;;5.32;100.00;96246.83;647081;216;31638;-73
2021/10/23 04:32:40;;;;;;;0.40;0.40;;;4.50;1.40;;;5.32;100.00;96248.06;617364;226;31970;-73
2021/10/23 04:35:51;;;;;;;1.30;0.50;;;4.50;1.40;;;5.31;100.00;96251.06;647578;216;31507;-73
2021/10/23 04:38:32;;;;;;;0.40;0.32;;;4.60;1.40;;;5.34;100.00;96244.05;646414;216;31501;-73
2021/10/23 04:43:48;;;;;;;0.90;0.90;;;4.60;1.40;;;5.46;100.00;96245.40;646548;216;31553;-71
2021/10/23 04:46:30;;;;;;;0.60;0.40;;;4.60;1.40;;;5.56;100.00;96244.70;645784;216;31536;-72
2021/10/23 04:49:12;;;;;;;0.70;0.55;;;4.60;1.40;;;5.59;100.00;96251.43;646586;212;42110;-73
2021/10/23 04:51:56;;;;;;;0.80;0.60;;;4.60;1.40;;;5.47;100.00;96253.00;646855;212;31546;-72
2021/10/23 04:54:38;;;;;;;1.30;0.90;;;4.50;1.40;;;5.39;100.00;96253.34;646345;216;31492;-74
2021/10/23 04:57:20;;;;;;;0.77;0.50;;;4.50;1.40;;;5.45;100.00;96259.16;645488;212;31535;-74
2021/10/23 05:00:01;;;;;;;1.20;0.40;;;4.50;1.40;;;5.49;100.00;96257.97;645874;216;31541;-73
2021/10/23 05:02:43;;;;;;;0.70;0.47;;;4.40;1.40;;;5.49;100.00;96259.47;646135;216;31512;-73
2021/10/23 05:05:28;;;;;;;1.55;0.73;;;4.40;1.40;;;5.52;100.00;96259.45;645866;212;32098;-72
2021/10/23 05:08:09;;;;;;;0.60;0.40;;;4.40;1.40;;;5.45;100.00;96260.34;645955;216;32160;-72
2021/10/23 05:10:51;;;;;;;0.60;0.50;;;4.40;1.40;;;5.49;100.00;96263.45;646348;216;31794;-73
2021/10/23 05:13:33;;;;;;;0.40;0.30;;;4.40;1.40;;;5.50;100.00;96267.50;645620;216;32101;-72
2021/10/23 05:16:14;;;;;;;2.80;0.70;;;4.40;1.40;;;5.55;100.00;96264.31;646068;212;32082;-74
2021/10/23 05:18:56;;;;;;;2.50;0.52;;;4.50;1.40;;;5.55;100.00;96263.56;644552;212;32841;-71
2021/10/23 05:21:38;;;;;;;0.43;0.40;;;4.50;1.40;;;5.64;100.00;96262.88;646000;216;31554;-73
2021/10/23 05:24:22;;;;;;;0.60;0.60;;;4.60;1.40;;;5.66;100.00;96261.13;646721;212;31534;-73
2021/10/23 05:27:04;;;;;;;0.60;0.30;;;4.60;1.40;;;5.70;100.00;96260.53;645326;212;31629;-73
2021/10/23 05:29:46;;;;;;;0.40;0.30;;;4.70;1.40;;;5.68;100.00;96259.16;619286;226;31968;-70
2021/10/23 05:32:28;;;;;;;0.40;0.30;;;4.70;1.40;;;5.60;100.00;96266.45;647076;216;31546;-73
2021/10/23 05:35:54;;;;;;;1.10;0.60;;;4.70;1.40;;;5.56;100.00;96268.90;647325;216;31489;-73
2021/10/23 05:38:36;;;;;;;0.40;0.30;;;4.70;1.40;;;5.55;100.00;96267.55;645574;212;42177;-73
2021/10/23 05:41:18;;;;;;;0.60;0.60;;;4.70;1.40;;;5.62;100.00;96269.31;646133;216;42136;-73
2021/10/23 05:44:00;;;;;;;0.90;0.70;;;4.80;1.40;;;5.74;100.00;96272.46;645485;216;31578;-72
2021/10/23 05:46:41;;;;;;;2.85;0.70;;;4.70;1.40;;;5.80;100.00;96274.59;646172;216;32126;-73
2021/10/23 05:49:23;;;;;;;0.50;0.40;;;4.70;1.40;;;5.84;100.00;96276.56;646073;216;42721;-74
2021/10/23 05:52:05;;;;;;;0.50;0.40;;;4.60;1.40;;;5.71;100.00;96281.36;647257;216;31534;-73
2021/10/23 05:54:49;;;;;;;0.40;0.40;;;4.70;1.40;;;5.61;100.00;96285.23;645982;216;42146;-74
2021/10/23 05:57:31;;;;;;;0.40;0.37;;;4.70;1.40;;;5.65;100.00;96284.80;645733;212;42156;-72
2021/10/23 06:00:14;;;;;;;2.30;0.70;;;4.70;1.40;;;5.73;100.00;96289.34;619865;222;42495;-73
2021/10/23 06:03:02;;;;;;;1.10;0.50;;;4.70;1.40;;;5.73;100.00;96293.59;617327;224;33282;-84
2021/10/23 06:05:45;;;;;;;0.70;0.62;;;4.70;1.40;;;5.73;100.00;96293.38;644790;216;31589;-73
2021/10/23 06:08:27;;;;;;;1.30;0.60;;;4.70;1.40;;;5.65;100.00;96290.88;617824;222;31907;-70
2021/10/23 06:11:11;;;;;;;0.60;0.60;;;4.80;1.40;;;5.66;100.00;96294.86;646990;212;31593;-73
2021/10/23 06:13:55;;;;;;;0.40;0.20;;;4.80;1.40;;;5.70;100.00;96298.52;645163;216;42156;-72
2021/10/23 06:16:35;;;;;;;1.10;1.00;;;4.80;1.40;;;5.78;100.00;96297.66;646349;216;31753;-71
2021/10/23 06:19:16;;;;;;;0.40;0.40;;;4.80;1.40;;;5.86;100.00;96300.31;646643;216;41973;-73
2021/10/23 06:21:58;;;;;;;0.60;0.30;;;4.90;1.40;;;5.87;100.00;96301.41;645083;212;42432;-73
2021/10/23 06:24:43;;;;;;;1.00;0.40;;;4.90;1.40;;;5.93;100.00;96304.03;646976;216;31532;-71
2021/10/23 06:27:25;;;;;;;0.50;0.45;;;5.00;1.40;;;6.02;100.00;96301.66;618870;222;31867;-72
2021/10/23 06:30:12;;;;;;;0.70;0.45;;;5.10;1.40;;;6.00;100.00;96307.52;645519;216;31523;-76
2021/10/23 06:32:56;;;;;;;2.10;0.73;;;5.10;1.40;;;6.04;100.00;96302.44;646209;213;42120;-70
2021/10/23 06:35:51;;;;;;;0.57;0.47;;;5.20;1.40;;;5.98;100.00;96305.83;645963;216;31557;-73
2021/10/23 06:38:33;;;;;;;1.50;0.60;;;5.20;1.40;;;6.09;100.00;96306.30;646417;212;32164;-72
2021/10/23 06:41:15;;;;;;;0.77;0.60;;;5.30;1.40;;;6.29;100.00;96310.88;646854;212;32106;-71
2021/10/23 06:43:56;;;;;;;0.60;0.60;;;5.50;1.40;;;6.32;100.00;96314.30;646556;216;32177;-70
2021/10/23 06:48:17;;;;;;;1.67;0.90;;;5.50;1.40;;;6.35;100.00;96319.52;646225;212;31520;-70
2021/10/23 06:50:58;;;;;;;0.85;0.85;;;5.50;1.40;;;6.56;100.00;96320.75;646405;216;42132;-72
2021/10/23 06:53:43;;;;;;;1.05;0.90;;;5.70;1.40;;;6.68;100.00;96324.02;644817;216;31537;-71
2021/10/23 06:56:25;;;;;;;0.70;0.60;;;5.80;1.40;;;6.78;100.00;96326.60;618926;222;31902;-72
2021/10/23 06:59:06;;;;;;;2.10;1.00;;;5.80;1.40;;;6.85;100.00;96334.30;646962;212;31548;-71
2021/10/23 07:01:51;;;;;;;0.70;0.50;;;5.80;1.40;;;6.66;100.00;96339.15;645330;215;31556;-72
2021/10/23 07:04:33;;;;;;;0.62;0.62;;;5.70;1.40;;;6.69;100.00;96342.08;646315;216;31700;-73
2021/10/23 07:07:15;;;;;;;0.50;0.45;;;5.80;1.40;;;6.75;100.00;96346.03;647548;212;32022;-71
2021/10/23 07:09:56;;;;;;;1.00;0.80;;;5.80;1.40;;;6.77;100.00;96353.22;645523;212;31788;-73
2021/10/23 07:12:38;;;;;;;0.93;0.50;;;5.80;1.40;;;6.75;100.00;96359.72;646600;212;31758;-72
2021/10/23 07:15:23;;;;;;;0.70;0.70;;;5.90;1.40;;;6.87;100.00;96360.72;647296;216;31585;-72
2021/10/23 07:18:04;;;;;;;1.80;0.70;;;6.00;1.40;;;6.98;100.00;96371.89;645164;212;31692;-71
2021/10/23 07:20:46;;;;;;;1.40;0.80;;;6.00;1.40;;;7.07;100.00;96370.41;647000;216;31968;-73
2021/10/23 07:23:31;;;;;;;3.30;0.80;;;6.10;1.40;;;7.22;100.00;96371.05;646692;216;31612;-72
2021/10/23 07:26:12;;;;;;;2.70;1.00;;;6.20;1.40;;;7.38;100.00;96373.70;648160;216;31517;-73
2021/10/23 07:29:00;;;;;;;1.30;0.62;;;6.20;1.40;;;7.33;100.00;96380.85;646518;212;31569;-74
2021/10/23 07:31:48;;;;;;;0.50;0.30;;;6.30;1.40;;;7.37;100.00;96381.80;644850;212;31611;-72
2021/10/23 07:35:51;;;;;;;1.25;0.52;;;6.20;1.40;;;7.30;100.00;96387.41;646351;212;42201;-72
2021/10/23 07:38:33;;;;;;;3.93;1.00;;;6.30;1.40;;;7.36;100.00;96391.98;646619;216;31702;-73
2021/10/23 07:41:15;;;;;;;2.65;0.50;;;6.40;1.40;;;7.55;100.00;96402.42;641914;212;31806;-73
2021/10/23 07:43:56;;;;;;;0.50;0.43;;;6.50;1.40;;;8.05;100.00;96405.11;646401;216;31609;-71
2021/10/23 07:46:38;;;;;;;0.80;0.50;;;6.90;1.40;;;8.09;100.00;96411.66;646161;212;31606;-71
2021/10/23 07:49:20;;;;;;;1.33;0.73;;;6.90;1.40;;;8.28;100.00;96410.66;646698;216;31658;-72
2021/10/23 07:52:01;;;;;;;0.60;0.47;;;7.10;1.40;;;8.26;100.00;96412.38;646899;216;31622;-71
2021/10/23 07:54:43;;;;;;;0.50;0.40;;;7.10;1.40;;;8.35;100.00;96406.66;645334;216;31908;-72
2021/10/23 07:57:25;;;;;;;0.60;0.50;;;7.20;1.40;;;8.41;100.00;96409.94;645578;212;32040;-69
2021/10/23 08:00:07;;;;;;;1.13;0.40;;;7.20;1.40;;;8.71;100.00;96417.85;645958;212;31531;-71
2021/10/23 08:02:57;;;;;;;0.50;0.50;;;7.30;1.40;;;8.80;100.00;96424.97;618582;222;32326;-70
2021/10/23 08:05:38;;;;;;;0.60;0.60;;;7.30;1.40;;;8.91;100.00;96427.41;645715;212;31841;-72
2021/10/23 08:08:20;;;;;;;0.50;0.50;;;7.40;1.40;;;9.01;100.00;96428.91;646360;212;31528;-72
2021/10/23 08:11:02;;;;;;;1.80;1.00;;;7.40;1.40;;;8.89;100.00;96430.06;646686;212;31492;-71
2021/10/23 08:13:43;;;;;;;0.67;0.60;;;7.40;1.40;;;8.99;100.00;96428.20;646654;212;31516;-69
2021/10/23 08:16:25;;;;;;;2.30;0.70;;;7.40;1.40;;;9.36;100.00;96424.13;618841;222;31914;-71
2021/10/23 08:19:10;;;;;;;0.50;0.50;;;7.70;1.40;;;9.68;100.00;96426.67;645446;216;31533;-71
2021/10/23 08:21:51;;;;;;;1.80;0.80;;;8.00;1.40;;;9.73;100.00;96416.95;646120;216;31716;-71
2021/10/23 08:24:35;;;;;;;1.40;0.62;;;8.00;1.40;;;9.38;100.00;96410.92;618372;222;42534;-71
2021/10/23 08:27:17;;;;;;;1.83;0.47;;;8.00;1.40;;;9.21;100.00;96400.41;645697;216;31531;-73
2021/10/23 08:30:03;;;;;;;1.93;0.87;;;8.00;1.40;;;9.32;100.00;96392.53;641621;216;31616;-72
2021/10/23 08:32:45;;;;;;;2.60;0.90;;;8.20;1.40;;;9.47;100.00;96391.20;647105;216;31504;-73
2021/10/23 08:35:51;;;;;;;1.00;0.90;;;8.40;1.40;;;9.65;100.00;96377.16;645834;216;31495;-71
2021/10/23 08:39:44;;;;;;;2.33;1.35;;;8.10;1.40;;;9.51;100.00;96380.82;645373;212;31528;-73
2021/10/23 08:42:26;;;;;;;1.00;0.60;;;8.40;1.40;;;10.75;100.00;96384.52;644420;212;31544;-74
2021/10/23 08:45:08;;;;;;;0.70;0.60;;;10.50;1.40;;;12.62;95.91;96383.16;646328;212;31564;-71
2021/10/23 08:47:50;;;;;;;0.83;0.50;;;13.20;1.40;;;13.42;80.22;96388.45;647377;216;42097;-71
2021/10/23 08:50:31;;;;;;;1.00;0.60;;;12.90;1.40;;;14.19;74.44;96386.20;646361;212;31526;-71
2021/10/23 08:53:13;;;;;;;1.33;0.70;;;13.10;1.40;;;14.85;76.00;96389.41;646184;212;31478;-71
2021/10/23 08:55:55;;;;;;;1.10;1.00;;;13.60;1.40;;;18.14;74.09;96390.06;647965;216;31533;-71
2021/10/23 08:58:37;;;;;;;0.40;0.32;;;16.30;1.40;;;18.96;61.36;96384.29;644426;216;32555;-71
2021/10/23 09:01:18;;;;;;;0.80;0.40;;;16.40;1.40;;;19.38;59.77;96387.45;646237;212;31502;-71
2021/10/23 09:04:00;;;;;;;1.37;0.85;;;16.10;1.40;;;20.76;62.46;96391.57;646754;212;31509;-72
2021/10/23 09:06:45;;;;;;;0.80;0.40;;;17.80;1.40;;;22.12;58.28;96390.51;647153;216;31515;-71
2021/10/23 09:09:26;;;;;;;2.00;0.50;;;18.50;1.40;;;21.61;57.21;96386.13;647158;212;38429;-71
2021/10/23 09:12:08;;;;;;;3.00;0.70;;;18.20;1.40;;;20.74;52.14;96389.36;648164;212;31640;-72
2021/10/23 09:17:30;;;;;;;1.10;0.50;;;18.50;1.40;;;23.92;49.52;96395.13;646869;216;31744;-72
2021/10/23 09:20:12;;;;;;;0.90;0.60;;;18.80;1.40;;;24.14;47.53;96387.05;646076;212;31481;-72
2021/10/23 09:22:53;;;;;;;1.33;0.60;;;19.80;1.40;;;24.20;45.53;96379.80;647111;212;32066;-72
2021/10/23 09:25:35;;;;;;;1.20;0.80;;;19.80;1.40;;;23.44;51.71;96387.64;646520;212;31672;-72
2021/10/23 09:28:17;;;;;;;2.40;0.80;;;18.90;1.40;;;24.27;45.51;96375.77;645887;216;31505;-71
2021/10/23 09:30:58;;;;;;;0.88;0.57;;;19.50;1.40;;;23.64;41.36;96382.43;646913;212;31493;-72
2021/10/23 09:35:52;;;;;;;0.60;0.57;;;19.80;1.40;;;23.25;41.65;96394.52;646659;216;31841;-71
2021/10/23 09:38:34;;;;;;;0.95;0.65;;;19.20;1.40;;;24.75;42.41;96381.53;646622;213;43985;-72
2021/10/23 09:41:17;;;;;;;1.30;0.80;;;17.90;1.40;;;26.29;41.56;96388.39;646897;212;31568;-71
2021/10/23 09:44:14;;;;;;;1.50;0.60;;;19.80;1.40;;;24.01;38.91;96399.47;645011;216;31720;-72
2021/10/23 09:46:56;;;;;;;1.00;0.60;;;18.30;1.40;;;25.98;46.94;96392.08;618531;226;31953;-71
2021/10/23 09:49:38;;;;;;;1.35;0.60;;;18.10;1.40;;;24.14;46.34;96391.95;645605;216;31641;-71
2021/10/23 09:52:22;;;;;;;1.55;0.62;;;17.70;1.40;;;22.67;41.08;96398.97;645924;216;31702;-72
2021/10/23 09:55:07;;;;;;;1.50;0.60;;;18.00;1.40;;;26.12;47.31;96379.73;646892;216;31772;-72
2021/10/23 09:57:57;;;;;;;0.93;0.50;;;18.90;1.40;;;26.06;37.87;96382.36;646789;212;31575;-71
2021/10/23 10:00:42;;;;;;;2.83;1.00;;;20.10;1.40;;;25.55;39.74;96387.44;646840;216;31727;-71
2021/10/23 10:03:23;;;;;;;1.33;0.70;;;20.00;1.40;;;26.14;38.71;96394.02;645593;212;31578;-72
2021/10/23 10:06:05;;;;;;;1.85;0.80;;;20.30;1.40;;;27.51;36.57;96392.17;646299;216;31471;-72
2021/10/23 10:08:50;;;;;;;1.50;0.60;;;20.80;1.40;;;28.44;36.51;96390.25;645239;216;31517;-71
2021/10/23 10:11:32;;;;;;;1.30;0.80;;;21.40;1.40;;;29.08;31.36;96390.96;646958;216;31655;-72
2021/10/23 10:14:17;;;;;;;1.40;0.47;;;21.00;1.40;;;28.06;32.68;96389.31;645643;216;42484;-72
2021/10/23 10:16:59;;;;;;;1.37;0.62;;;20.40;1.40;;;25.07;34.02;96394.16;646839;216;31458;-72
2021/10/23 10:19:40;;;;;;;0.90;0.60;;;16.30;1.40;;;22.10;39.79;96401.86;645623;212;31488;-71
2021/10/23 10:22:22;;;;;;;0.80;0.47;;;15.10;1.40;;;20.96;39.75;96405.63;619224;226;31867;-71
2021/10/23 10:25:20;;;;;;;1.10;0.70;;;14.90;1.40;;;20.11;41.34;96406.27;646602;216;31716;-72
2021/10/23 10:28:10;;;;;;;0.90;0.40;;;16.70;1.40;;;22.76;40.04;96396.51;647683;216;31486;-72
2021/10/23 10:30:57;;;;;;;1.15;1.00;;;19.20;1.40;;;26.52;35.04;96382.52;646327;213;31483;-72
2021/10/23 10:36:13;;;;;;;0.70;0.57;;;21.80;1.40;;;30.22;31.58;96372.02;646573;216;31675;-71
2021/10/23 10:39:02;;;;;;;0.70;0.60;;;22.30;1.40;;;29.85;29.27;96380.55;646467;216;42101;-72
2021/10/23 10:44:42;;;;;;;0.90;0.70;;;21.50;1.40;;;26.05;31.62;96385.05;645843;212;31613;-72
2021/10/23 10:47:27;;;;;;;1.30;0.50;;;20.20;1.40;;;26.53;31.99;96383.20;646262;212;31474;-71
2021/10/23 10:50:09;;;;;;;1.60;0.50;;;20.60;1.40;;;29.65;32.36;96375.98;645704;216;31839;-72
2021/10/23 10:52:54;;;;;;;0.70;0.50;;;22.50;1.40;;;30.97;27.99;96372.48;646881;212;31510;-72
2021/10/23 10:55:38;;;;;;;1.00;0.70;;;21.70;1.40;;;31.13;28.89;96370.84;642533;215;42258;-71
2021/10/23 10:58:20;;;;;;;1.87;0.70;;;23.50;1.40;;;29.04;29.39;96377.52;646212;212;31809;-72
2021/10/23 11:01:22;;;;;;;0.93;0.88;;;22.50;1.40;;;28.43;31.62;96377.62;645398;212;31555;-71
2021/10/23 11:04:06;;;;;;;0.70;0.70;;;21.10;1.40;;;29.03;30.25;96378.86;620365;226;31798;-72
2021/10/23 11:06:52;;;;;;;1.75;0.68;;;19.00;1.40;;;29.01;30.66;96376.59;646217;212;42227;-72
2021/10/23 11:09:31;;;;;;;1.05;0.52;;;20.50;1.40;;;26.72;32.17;96376.33;646165;212;31475;-72
2021/10/23 11:12:19;;;;;;;1.33;0.60;;;19.70;1.40;;;29.54;29.33;96372.52;642600;216;32016;-76
2021/10/23 11:15:11;;;;;;;2.00;0.90;;;21.90;1.40;;;26.74;30.12;96378.02;645780;216;32030;-72
2021/10/23 11:17:56;;;;;;;1.70;0.77;;;20.50;1.40;;;24.11;33.59;96391.14;617822;226;31822;-72
2021/10/23 11:20:38;;;;;;;1.37;0.50;;;20.50;1.40;;;28.99;28.30;96372.64;646108;212;32275;-72
2021/10/23 11:23:21;;;;;;;1.77;0.60;;;21.10;1.40;;;28.98;29.54;96371.69;647369;212;31581;-72
2021/10/23 11:26:05;;;;;;;0.50;0.40;;;21.30;1.40;;;29.25;28.68;96363.61;619230;222;31823;-72
2021/10/23 11:28:46;;;;;;;1.02;0.60;;;21.80;1.40;;;27.86;29.66;96366.97;646290;212;31756;-72
2021/10/23 11:31:28;;;;;;;1.67;0.80;;;21.10;1.40;;;32.52;27.64;96362.98;645204;212;42297;-72
2021/10/23 11:35:51;;;;;;;0.50;0.47;;;22.30;1.40;;;29.19;25.41;96356.77;647370;212;31662;-72
2021/10/23 11:38:32;;;;;;;0.90;0.70;;;21.10;1.40;;;26.16;27.77;96365.83;646628;212;31774;-72
2021/10/23 11:41:14;;;;;;;1.10;0.30;;;19.50;1.40;;;28.40;27.96;96362.35;642333;216;31853;-72
2021/10/23 11:44:05;;;;;;;1.40;0.60;;;19.70;1.40;;;27.60;27.69;96369.28;646377;216;31605;-71
2021/10/23 11:46:47;;;;;;;0.65;0.50;;;19.30;1.40;;;26.12;29.14;96368.56;646303;213;31842;-72
2021/10/23 11:49:32;;;;;;;0.60;0.50;;;17.90;1.40;;;23.37;31.41;96372.73;646559;212;32321;-72
2021/10/23 11:52:18;;;;;;;0.90;0.50;;;16.40;1.40;;;22.31;32.70;96370.91;646926;212;31466;-72
2021/10/23 11:55:01;;;;;;;0.95;0.50;;;15.70;1.40;;;21.34;35.19;96362.36;647731;216;31653;-71
2021/10/23 11:57:42;;;;;;;1.60;0.40;;;15.10;1.40;;;21.22;35.00;96367.86;646394;216;33545;-72
2021/10/23 12:00:29;;;;;;;0.65;0.43;;;15.50;1.40;;;19.45;37.42;96364.02;641688;215;31568;-71
2021/10/23 12:03:11;;;;;;;0.73;0.50;;;15.00;1.40;;;19.46;37.02;96368.81;646007;216;31466;-71